sensor_id;sensor_type;location;lat;lon;timestamp;temperature;humidity
65582;DHT22;52231;40.090;18.348;2023-02-28T00:01:47;11.80;93.20
65582;DHT22;52231;40.090;18.348;2023-02-28T00:04:15;11.80;93.20
65582;DHT22;52231;40.090;18.348;2023-02-28T00:06:43;11.90;93.20
65582;DHT22;52231;40.090;18.348;2023-02-28T00:09:12;11.90;93.20
65582;DHT22;52231;40.090;18.348;2023-02-28T00:11:40;11.90;93.20
65582;DHT22;52231;40.090;18.348;2023-02-28T00:14:09;12.00;93.20
65582;DHT22;52231;40.090;18.348;2023-02-28T00:16:37;12.00;93.20
65582;DHT22;52231;40.090;18.348;2023-02-28T00:19:10;12.00;93.20
65582;DHT22;52231;40.090;18.348;2023-02-28T00:21:41;12.00;93.20
65582;DHT22;52231;40.090;18.348;2023-02-28T00:24:13;12.00;93.20
65582;DHT22;52231;40.090;18.348;2023-02-28T00:26:41;12.10;93.30
65582;DHT22;52231;40.090;18.348;2023-02-28T00:29:10;12.10;93.30
65582;DHT22;52231;40.090;18.348;2023-02-28T00:31:38;12.10;93.30
65582;DHT22;52231;40.090;18.348;2023-02-28T00:34:06;12.20;93.30
65582;DHT22;52231;40.090;18.348;2023-02-28T00:36:34;12.30;93.30
65582;DHT22;52231;40.090;18.348;2023-02-28T00:39:04;12.40;93.30
65582;DHT22;52231;40.090;18.348;2023-02-28T00:41:32;12.40;93.20
65582;DHT22;52231;40.090;18.348;2023-02-28T00:44:01;12.40;93.20
65582;DHT22;52231;40.090;18.348;2023-02-28T00:46:32;12.40;93.20
65582;DHT22;52231;40.090;18.348;2023-02-28T00:49:00;12.40;93.20
65582;DHT22;52231;40.090;18.348;2023-02-28T00:51:29;12.40;93.20
65582;DHT22;52231;40.090;18.348;2023-02-28T00:53:57;12.40;93.20
65582;DHT22;52231;40.090;18.348;2023-02-28T00:56:25;12.40;93.20
65582;DHT22;52231;40.090;18.348;2023-02-28T00:58:56;12.30;93.30
65582;DHT22;52231;40.090;18.348;2023-02-28T01:01:25;12.30;93.30
65582;DHT22;52231;40.090;18.348;2023-02-28T01:03:54;12.30;93.20
65582;DHT22;52231;40.090;18.348;2023-02-28T01:06:22;12.30;93.30
65582;DHT22;52231;40.090;18.348;2023-02-28T01:08:50;12.20;93.30
65582;DHT22;52231;40.090;18.348;2023-02-28T01:11:18;12.30;93.30
65582;DHT22;52231;40.090;18.348;2023-02-28T01:13:46;12.30;93.30
65582;DHT22;52231;40.090;18.348;2023-02-28T01:16:15;12.30;93.30
65582;DHT22;52231;40.090;18.348;2023-02-28T01:18:45;12.30;93.30
65582;DHT22;52231;40.090;18.348;2023-02-28T01:21:19;12.30;93.30
65582;DHT22;52231;40.090;18.348;2023-02-28T01:23:48;12.20;93.30
65582;DHT22;52231;40.090;18.348;2023-02-28T01:26:19;12.20;93.30
65582;DHT22;52231;40.090;18.348;2023-02-28T01:28:49;12.20;93.30
65582;DHT22;52231;40.090;18.348;2023-02-28T01:31:19;12.20;93.30
65582;DHT22;52231;40.090;18.348;2023-02-28T01:33:49;12.10;93.30
65582;DHT22;52231;40.090;18.348;2023-02-28T01:36:21;12.10;93.30
65582;DHT22;52231;40.090;18.348;2023-02-28T01:38:51;12.10;93.30
65582;DHT22;52231;40.090;18.348;2023-02-28T01:41:29;12.10;93.30
65582;DHT22;52231;40.090;18.348;2023-02-28T01:44:05;12.10;93.40
65582;DHT22;52231;40.090;18.348;2023-02-28T01:46:35;12.20;93.40
65582;DHT22;52231;40.090;18.348;2023-02-28T01:49:05;12.10;93.30
65582;DHT22;52231;40.090;18.348;2023-02-28T01:51:49;12.20;93.30
65582;DHT22;52231;40.090;18.348;2023-02-28T01:54:29;12.20;93.30
65582;DHT22;52231;40.090;18.348;2023-02-28T01:57:11;12.10;93.30
65582;DHT22;52231;40.090;18.348;2023-02-28T02:00:00;12.10;93.30
65582;DHT22;52231;40.090;18.348;2023-02-28T02:02:40;12.20;93.40
65582;DHT22;52231;40.090;18.348;2023-02-28T02:05:24;12.10;93.30
65582;DHT22;52231;40.090;18.348;2023-02-28T02:07:55;12.10;93.30
65582;DHT22;52231;40.090;18.348;2023-02-28T02:10:39;12.00;93.30
65582;DHT22;52231;40.090;18.348;2023-02-28T02:27:18;12.10;93.30
65582;DHT22;52231;40.090;18.348;2023-02-28T02:40:33;12.10;93.40
65582;DHT22;52231;40.090;18.348;2023-02-28T02:45:38;12.10;93.40
65582;DHT22;52231;40.090;18.348;2023-02-28T02:48:13;12.10;93.40
65582;DHT22;52231;40.090;18.348;2023-02-28T02:50:46;12.10;93.40
65582;DHT22;52231;40.090;18.348;2023-02-28T02:53:19;12.20;93.40
65582;DHT22;52231;40.090;18.348;2023-02-28T02:55:51;12.20;93.50
65582;DHT22;52231;40.090;18.348;2023-02-28T02:58:25;12.30;93.50
65582;DHT22;52231;40.090;18.348;2023-02-28T03:00:57;12.30;93.40
65582;DHT22;52231;40.090;18.348;2023-02-28T03:03:28;12.30;93.50
65582;DHT22;52231;40.090;18.348;2023-02-28T03:05:59;12.30;93.50
65582;DHT22;52231;40.090;18.348;2023-02-28T03:08:29;12.20;93.50
65582;DHT22;52231;40.090;18.348;2023-02-28T03:11:03;12.20;93.50
65582;DHT22;52231;40.090;18.348;2023-02-28T03:13:50;12.20;93.50
65582;DHT22;52231;40.090;18.348;2023-02-28T03:24:52;12.20;93.50
65582;DHT22;52231;40.090;18.348;2023-02-28T03:27:42;12.20;93.50
65582;DHT22;52231;40.090;18.348;2023-02-28T03:33:28;12.10;93.60
65582;DHT22;52231;40.090;18.348;2023-02-28T03:36:08;12.20;93.50
65582;DHT22;52231;40.090;18.348;2023-02-28T03:38:45;12.30;93.40
65582;DHT22;52231;40.090;18.348;2023-02-28T03:41:24;12.30;93.40
65582;DHT22;52231;40.090;18.348;2023-02-28T03:43:55;12.40;93.40
65582;DHT22;52231;40.090;18.348;2023-02-28T03:46:28;12.40;93.50
65582;DHT22;52231;40.090;18.348;2023-02-28T03:49:14;12.40;93.40
65582;DHT22;52231;40.090;18.348;2023-02-28T03:51:46;12.40;93.40
65582;DHT22;52231;40.090;18.348;2023-02-28T03:54:29;12.30;93.50
65582;DHT22;52231;40.090;18.348;2023-02-28T03:57:04;12.40;93.50
65582;DHT22;52231;40.090;18.348;2023-02-28T03:59:37;12.50;93.40
65582;DHT22;52231;40.090;18.348;2023-02-28T04:02:08;12.50;93.40
65582;DHT22;52231;40.090;18.348;2023-02-28T04:04:36;12.50;93.40
65582;DHT22;52231;40.090;18.348;2023-02-28T04:07:08;12.50;93.40
65582;DHT22;52231;40.090;18.348;2023-02-28T04:09:37;12.50;93.50
65582;DHT22;52231;40.090;18.348;2023-02-28T04:12:05;12.40;93.50
65582;DHT22;52231;40.090;18.348;2023-02-28T04:14:33;12.30;93.50
65582;DHT22;52231;40.090;18.348;2023-02-28T04:17:01;12.30;93.50
65582;DHT22;52231;40.090;18.348;2023-02-28T04:19:30;12.20;93.50
65582;DHT22;52231;40.090;18.348;2023-02-28T04:21:58;12.20;93.50
65582;DHT22;52231;40.090;18.348;2023-02-28T04:24:27;12.20;93.50
65582;DHT22;52231;40.090;18.348;2023-02-28T04:26:56;12.20;93.50
65582;DHT22;52231;40.090;18.348;2023-02-28T04:29:27;12.10;93.50
65582;DHT22;52231;40.090;18.348;2023-02-28T04:31:56;12.10;93.50
65582;DHT22;52231;40.090;18.348;2023-02-28T04:34:30;12.10;93.50
65582;DHT22;52231;40.090;18.348;2023-02-28T04:36:58;12.10;93.50
65582;DHT22;52231;40.090;18.348;2023-02-28T04:39:43;12.10;93.50
65582;DHT22;52231;40.090;18.348;2023-02-28T04:42:12;12.00;93.40
65582;DHT22;52231;40.090;18.348;2023-02-28T04:44:40;12.00;93.40
65582;DHT22;52231;40.090;18.348;2023-02-28T04:47:09;12.10;93.40
65582;DHT22;52231;40.090;18.348;2023-02-28T04:49:37;12.20;93.40
65582;DHT22;52231;40.090;18.348;2023-02-28T04:52:05;12.20;93.40
65582;DHT22;52231;40.090;18.348;2023-02-28T04:54:35;12.20;93.50
65582;DHT22;52231;40.090;18.348;2023-02-28T04:57:03;12.20;93.40
65582;DHT22;52231;40.090;18.348;2023-02-28T04:59:32;12.20;93.50
65582;DHT22;52231;40.090;18.348;2023-02-28T05:02:00;12.20;93.40
65582;DHT22;52231;40.090;18.348;2023-02-28T05:04:34;12.20;93.40
65582;DHT22;52231;40.090;18.348;2023-02-28T05:07:03;12.20;93.50
65582;DHT22;52231;40.090;18.348;2023-02-28T05:09:34;12.10;93.50
65582;DHT22;52231;40.090;18.348;2023-02-28T05:12:03;12.00;93.50
65582;DHT22;52231;40.090;18.348;2023-02-28T05:14:31;12.00;93.60
65582;DHT22;52231;40.090;18.348;2023-02-28T05:16:59;12.00;93.60
65582;DHT22;52231;40.090;18.348;2023-02-28T05:19:27;12.00;93.60
65582;DHT22;52231;40.090;18.348;2023-02-28T05:21:55;12.10;93.60
65582;DHT22;52231;40.090;18.348;2023-02-28T05:24:24;12.20;93.60
65582;DHT22;52231;40.090;18.348;2023-02-28T05:26:53;12.30;93.60
65582;DHT22;52231;40.090;18.348;2023-02-28T05:29:22;12.20;93.50
65582;DHT22;52231;40.090;18.348;2023-02-28T05:31:50;12.20;93.60
65582;DHT22;52231;40.090;18.348;2023-02-28T05:34:18;12.10;93.60
65582;DHT22;52231;40.090;18.348;2023-02-28T05:36:47;12.10;93.60
65582;DHT22;52231;40.090;18.348;2023-02-28T05:39:15;12.10;93.60
65582;DHT22;52231;40.090;18.348;2023-02-28T05:41:43;12.10;93.60
65582;DHT22;52231;40.090;18.348;2023-02-28T05:44:11;12.20;93.60
65582;DHT22;52231;40.090;18.348;2023-02-28T05:46:40;12.20;93.50
65582;DHT22;52231;40.090;18.348;2023-02-28T05:49:08;12.30;93.50
65582;DHT22;52231;40.090;18.348;2023-02-28T05:51:36;12.30;93.40
65582;DHT22;52231;40.090;18.348;2023-02-28T05:54:07;12.40;93.40
65582;DHT22;52231;40.090;18.348;2023-02-28T05:56:36;12.50;93.40
65582;DHT22;52231;40.090;18.348;2023-02-28T05:59:07;12.60;93.40
65582;DHT22;52231;40.090;18.348;2023-02-28T06:01:38;12.60;93.30
65582;DHT22;52231;40.090;18.348;2023-02-28T06:04:08;12.70;93.30
65582;DHT22;52231;40.090;18.348;2023-02-28T06:06:46;12.80;93.30
65582;DHT22;52231;40.090;18.348;2023-02-28T06:09:15;12.80;93.30
65582;DHT22;52231;40.090;18.348;2023-02-28T06:11:44;12.80;93.30
65582;DHT22;52231;40.090;18.348;2023-02-28T06:14:14;12.80;93.30
65582;DHT22;52231;40.090;18.348;2023-02-28T06:16:44;12.90;93.30
65582;DHT22;52231;40.090;18.348;2023-02-28T06:19:12;12.90;93.30
65582;DHT22;52231;40.090;18.348;2023-02-28T06:21:41;13.00;93.30
65582;DHT22;52231;40.090;18.348;2023-02-28T06:24:10;13.00;93.20
65582;DHT22;52231;40.090;18.348;2023-02-28T06:26:38;13.00;93.30
65582;DHT22;52231;40.090;18.348;2023-02-28T06:29:06;13.20;93.30
65582;DHT22;52231;40.090;18.348;2023-02-28T06:31:35;13.30;93.20
65582;DHT22;52231;40.090;18.348;2023-02-28T06:34:04;13.50;93.20
65582;DHT22;52231;40.090;18.348;2023-02-28T06:36:32;13.80;93.20
65582;DHT22;52231;40.090;18.348;2023-02-28T06:39:01;14.10;93.20
65582;DHT22;52231;40.090;18.348;2023-02-28T06:41:29;14.40;93.10
65582;DHT22;52231;40.090;18.348;2023-02-28T06:44:05;14.50;93.20
65582;DHT22;52231;40.090;18.348;2023-02-28T06:46:40;14.70;93.20
65582;DHT22;52231;40.090;18.348;2023-02-28T06:49:09;14.90;93.20
65582;DHT22;52231;40.090;18.348;2023-02-28T06:51:41;14.80;93.20
65582;DHT22;52231;40.090;18.348;2023-02-28T06:54:12;14.70;93.20
65582;DHT22;52231;40.090;18.348;2023-02-28T06:56:40;14.80;93.10
65582;DHT22;52231;40.090;18.348;2023-02-28T06:59:09;14.90;93.10
65582;DHT22;52231;40.090;18.348;2023-02-28T07:01:37;15.10;93.10
65582;DHT22;52231;40.090;18.348;2023-02-28T07:04:07;15.10;93.20
65582;DHT22;52231;40.090;18.348;2023-02-28T07:06:34;15.10;93.20
65582;DHT22;52231;40.090;18.348;2023-02-28T07:09:02;15.00;92.80
65582;DHT22;52231;40.090;18.348;2023-02-28T07:11:31;15.00;93.00
65582;DHT22;52231;40.090;18.348;2023-02-28T07:14:00;15.00;92.70
65582;DHT22;52231;40.090;18.348;2023-02-28T07:16:28;14.90;92.90
65582;DHT22;52231;40.090;18.348;2023-02-28T07:18:56;14.80;92.90
65582;DHT22;52231;40.090;18.348;2023-02-28T07:21:24;14.70;92.80
65582;DHT22;52231;40.090;18.348;2023-02-28T07:23:52;14.80;92.80
65582;DHT22;52231;40.090;18.348;2023-02-28T07:26:20;14.90;92.70
65582;DHT22;52231;40.090;18.348;2023-02-28T07:28:49;15.00;92.70
65582;DHT22;52231;40.090;18.348;2023-02-28T07:31:18;15.00;92.20
65582;DHT22;52231;40.090;18.348;2023-02-28T07:33:46;15.00;91.80
65582;DHT22;52231;40.090;18.348;2023-02-28T07:36:16;15.00;91.50
65582;DHT22;52231;40.090;18.348;2023-02-28T07:38:47;15.00;91.10
65582;DHT22;52231;40.090;18.348;2023-02-28T07:41:21;15.10;90.30
65582;DHT22;52231;40.090;18.348;2023-02-28T07:43:53;15.30;89.90
65582;DHT22;52231;40.090;18.348;2023-02-28T07:46:22;15.50;89.80
65582;DHT22;52231;40.090;18.348;2023-02-28T07:48:50;15.70;89.10
65582;DHT22;52231;40.090;18.348;2023-02-28T07:51:18;15.90;88.50
65582;DHT22;52231;40.090;18.348;2023-02-28T07:53:47;15.90;87.20
65582;DHT22;52231;40.090;18.348;2023-02-28T07:56:14;16.20;86.80
65582;DHT22;52231;40.090;18.348;2023-02-28T07:58:43;16.30;85.60
65582;DHT22;52231;40.090;18.348;2023-02-28T08:01:11;16.60;84.10
65582;DHT22;52231;40.090;18.348;2023-02-28T08:03:39;16.80;83.50
65582;DHT22;52231;40.090;18.348;2023-02-28T08:06:16;16.90;83.10
65582;DHT22;52231;40.090;18.348;2023-02-28T08:08:46;16.90;81.30
65582;DHT22;52231;40.090;18.348;2023-02-28T08:11:15;16.80;81.00
65582;DHT22;52231;40.090;18.348;2023-02-28T08:13:44;16.90;81.50
65582;DHT22;52231;40.090;18.348;2023-02-28T08:16:13;17.20;80.60
65582;DHT22;52231;40.090;18.348;2023-02-28T08:18:51;17.50;79.40
65582;DHT22;52231;40.090;18.348;2023-02-28T08:21:21;17.70;78.20
65582;DHT22;52231;40.090;18.348;2023-02-28T08:23:50;18.00;78.30
65582;DHT22;52231;40.090;18.348;2023-02-28T08:26:19;18.30;77.50
65582;DHT22;52231;40.090;18.348;2023-02-28T08:28:47;18.60;77.00
65582;DHT22;52231;40.090;18.348;2023-02-28T08:31:16;18.60;74.20
65582;DHT22;52231;40.090;18.348;2023-02-28T08:33:45;18.60;73.70
65582;DHT22;52231;40.090;18.348;2023-02-28T08:36:15;18.50;73.50
65582;DHT22;52231;40.090;18.348;2023-02-28T08:38:43;18.80;73.10
65582;DHT22;52231;40.090;18.348;2023-02-28T08:41:12;18.80;71.00
65582;DHT22;52231;40.090;18.348;2023-02-28T08:43:41;18.70;71.20
65582;DHT22;52231;40.090;18.348;2023-02-28T08:46:13;18.60;71.10
65582;DHT22;52231;40.090;18.348;2023-02-28T08:48:42;18.70;70.60
65582;DHT22;52231;40.090;18.348;2023-02-28T08:51:14;18.70;71.30
65582;DHT22;52231;40.090;18.348;2023-02-28T08:53:46;18.60;69.90
65582;DHT22;52231;40.090;18.348;2023-02-28T08:56:17;18.70;69.90
65582;DHT22;52231;40.090;18.348;2023-02-28T08:58:45;18.80;68.70
65582;DHT22;52231;40.090;18.348;2023-02-28T09:03:44;18.90;67.70
65582;DHT22;52231;40.090;18.348;2023-02-28T09:06:15;19.10;67.10
65582;DHT22;52231;40.090;18.348;2023-02-28T09:08:44;19.30;66.50
65582;DHT22;52231;40.090;18.348;2023-02-28T09:11:12;19.50;65.40
65582;DHT22;52231;40.090;18.348;2023-02-28T09:13:41;19.60;63.70
65582;DHT22;52231;40.090;18.348;2023-02-28T09:16:10;19.40;63.40
65582;DHT22;52231;40.090;18.348;2023-02-28T09:18:39;19.60;62.60
65582;DHT22;52231;40.090;18.348;2023-02-28T09:21:09;19.70;63.40
65582;DHT22;52231;40.090;18.348;2023-02-28T09:23:37;19.60;61.10
65582;DHT22;52231;40.090;18.348;2023-02-28T09:26:13;19.70;61.30
65582;DHT22;52231;40.090;18.348;2023-02-28T09:28:42;19.80;60.20
65582;DHT22;52231;40.090;18.348;2023-02-28T09:31:11;20.30;59.30
65582;DHT22;52231;40.090;18.348;2023-02-28T09:33:40;20.30;57.70
65582;DHT22;52231;40.090;18.348;2023-02-28T09:36:09;20.30;56.80
65582;DHT22;52231;40.090;18.348;2023-02-28T09:38:37;20.60;57.20
65582;DHT22;52231;40.090;18.348;2023-02-28T09:43:46;21.10;55.20
65582;DHT22;52231;40.090;18.348;2023-02-28T09:46:37;21.10;54.00
65582;DHT22;52231;40.090;18.348;2023-02-28T09:49:11;21.00;53.80
65582;DHT22;52231;40.090;18.348;2023-02-28T09:51:59;20.90;52.20
65582;DHT22;52231;40.090;18.348;2023-02-28T09:54:30;20.80;52.50
65582;DHT22;52231;40.090;18.348;2023-02-28T09:57:14;20.70;52.40
65582;DHT22;52231;40.090;18.348;2023-02-28T10:05:35;20.30;53.10
65582;DHT22;52231;40.090;18.348;2023-02-28T10:08:14;20.10;54.40
65582;DHT22;52231;40.090;18.348;2023-02-28T10:10:50;20.00;55.40
65582;DHT22;52231;40.090;18.348;2023-02-28T10:13:32;19.70;54.40
65582;DHT22;52231;40.090;18.348;2023-02-28T10:16:10;19.60;55.50
65582;DHT22;52231;40.090;18.348;2023-02-28T10:18:58;19.60;55.70
65582;DHT22;52231;40.090;18.348;2023-02-28T10:21:38;19.60;56.20
65582;DHT22;52231;40.090;18.348;2023-02-28T10:26:45;20.10;53.60
65582;DHT22;52231;40.090;18.348;2023-02-28T10:29:14;20.50;54.70
65582;DHT22;52231;40.090;18.348;2023-02-28T10:31:43;20.90;53.60
65582;DHT22;52231;40.090;18.348;2023-02-28T10:34:12;21.10;54.50
65582;DHT22;52231;40.090;18.348;2023-02-28T10:36:40;21.20;54.00
65582;DHT22;52231;40.090;18.348;2023-02-28T10:42:26;21.40;52.00
65582;DHT22;52231;40.090;18.348;2023-02-28T10:45:15;21.40;51.50
65582;DHT22;52231;40.090;18.348;2023-02-28T10:48:00;21.30;52.50
65582;DHT22;52231;40.090;18.348;2023-02-28T11:01:24;21.70;53.00
65582;DHT22;52231;40.090;18.348;2023-02-28T11:03:52;22.00;52.10
65582;DHT22;52231;40.090;18.348;2023-02-28T11:06:23;22.30;51.10
65582;DHT22;52231;40.090;18.348;2023-02-28T11:08:56;22.30;51.10
65582;DHT22;52231;40.090;18.348;2023-02-28T11:11:30;22.50;50.40
65582;DHT22;52231;40.090;18.348;2023-02-28T11:14:05;23.00;46.20
65582;DHT22;52231;40.090;18.348;2023-02-28T11:16:35;23.30;46.10
65582;DHT22;52231;40.090;18.348;2023-02-28T11:19:06;23.30;41.50
65582;DHT22;52231;40.090;18.348;2023-02-28T11:21:55;23.10;40.60
65582;DHT22;52231;40.090;18.348;2023-02-28T11:24:34;23.00;40.60
65582;DHT22;52231;40.090;18.348;2023-02-28T11:27:03;22.90;41.60
65582;DHT22;52231;40.090;18.348;2023-02-28T11:29:32;22.90;41.80
65582;DHT22;52231;40.090;18.348;2023-02-28T11:34:40;22.60;41.20
65582;DHT22;52231;40.090;18.348;2023-02-28T11:37:15;22.60;41.60
65582;DHT22;52231;40.090;18.348;2023-02-28T11:39:45;22.80;42.10
65582;DHT22;52231;40.090;18.348;2023-02-28T11:48:30;22.80;37.40
65582;DHT22;52231;40.090;18.348;2023-02-28T11:56:48;22.70;38.10
65582;DHT22;52231;40.090;18.348;2023-02-28T12:24:07;24.30;38.50
65582;DHT22;52231;40.090;18.348;2023-02-28T12:26:42;24.30;37.50
65582;DHT22;52231;40.090;18.348;2023-02-28T12:29:33;24.50;37.00
65582;DHT22;52231;40.090;18.348;2023-02-28T12:32:12;24.80;37.60
65582;DHT22;52231;40.090;18.348;2023-02-28T12:34:48;24.80;35.20
65582;DHT22;52231;40.090;18.348;2023-02-28T12:37:21;24.60;35.40
65582;DHT22;52231;40.090;18.348;2023-02-28T12:39:58;24.80;35.30
65582;DHT22;52231;40.090;18.348;2023-02-28T12:42:31;24.60;35.10
65582;DHT22;52231;40.090;18.348;2023-02-28T12:48:04;23.90;36.40
65582;DHT22;52231;40.090;18.348;2023-02-28T12:50:34;23.80;36.30
65582;DHT22;52231;40.090;18.348;2023-02-28T12:58:54;24.00;37.40
65582;DHT22;52231;40.090;18.348;2023-02-28T13:01:49;24.20;37.60
65582;DHT22;52231;40.090;18.348;2023-02-28T13:04:38;24.30;37.50
65582;DHT22;52231;40.090;18.348;2023-02-28T13:10:07;24.10;36.80
65582;DHT22;52231;40.090;18.348;2023-02-28T13:12:36;23.80;37.10
65582;DHT22;52231;40.090;18.348;2023-02-28T13:15:17;23.50;36.80
65582;DHT22;52231;40.090;18.348;2023-02-28T13:17:51;23.60;37.60
65582;DHT22;52231;40.090;18.348;2023-02-28T13:20:24;23.70;38.10
65582;DHT22;52231;40.090;18.348;2023-02-28T13:22:54;23.90;37.00
65582;DHT22;52231;40.090;18.348;2023-02-28T13:27:52;24.00;37.00
65582;DHT22;52231;40.090;18.348;2023-02-28T13:33:33;23.70;37.90
65582;DHT22;52231;40.090;18.348;2023-02-28T13:38:56;23.40;34.90
65582;DHT22;52231;40.090;18.348;2023-02-28T13:44:21;23.00;35.40
65582;DHT22;52231;40.090;18.348;2023-02-28T13:57:45;21.80;44.40
65582;DHT22;52231;40.090;18.348;2023-02-28T14:00:37;21.40;48.40
65582;DHT22;52231;40.090;18.348;2023-02-28T14:06:29;21.30;50.40
65582;DHT22;52231;40.090;18.348;2023-02-28T14:11:46;20.80;47.90
65582;DHT22;52231;40.090;18.348;2023-02-28T14:17:06;20.70;52.60
65582;DHT22;52231;40.090;18.348;2023-02-28T14:19:44;20.50;54.30
65582;DHT22;52231;40.090;18.348;2023-02-28T14:22:42;20.60;54.70
65582;DHT22;52231;40.090;18.348;2023-02-28T14:31:07;20.30;57.10
65582;DHT22;52231;40.090;18.348;2023-02-28T14:36:37;20.00;56.10
65582;DHT22;52231;40.090;18.348;2023-02-28T14:39:17;19.90;57.80
65582;DHT22;52231;40.090;18.348;2023-02-28T14:41:47;19.80;60.00
65582;DHT22;52231;40.090;18.348;2023-02-28T14:44:24;19.60;59.50
65582;DHT22;52231;40.090;18.348;2023-02-28T14:46:59;19.50;61.90
65582;DHT22;52231;40.090;18.348;2023-02-28T14:49:35;19.30;61.40
65582;DHT22;52231;40.090;18.348;2023-02-28T14:54:41;18.80;60.10
65582;DHT22;52231;40.090;18.348;2023-02-28T14:57:24;18.70;60.40
65582;DHT22;52231;40.090;18.348;2023-02-28T15:02:46;18.30;61.20
65582;DHT22;52231;40.090;18.348;2023-02-28T15:08:12;18.00;62.40
65582;DHT22;52231;40.090;18.348;2023-02-28T15:11:00;17.90;62.60
65582;DHT22;52231;40.090;18.348;2023-02-28T15:13:44;17.80;62.80
65582;DHT22;52231;40.090;18.348;2023-02-28T15:19:05;17.70;64.40
65582;DHT22;52231;40.090;18.348;2023-02-28T15:21:41;17.60;63.50
65582;DHT22;52231;40.090;18.348;2023-02-28T15:24:44;17.50;63.30
65582;DHT22;52231;40.090;18.348;2023-02-28T15:27:23;17.30;62.20
65582;DHT22;52231;40.090;18.348;2023-02-28T15:29:57;17.20;63.90
65582;DHT22;52231;40.090;18.348;2023-02-28T15:32:32;17.10;65.60
65582;DHT22;52231;40.090;18.348;2023-02-28T15:35:20;17.00;65.90
65582;DHT22;52231;40.090;18.348;2023-02-28T15:37:57;16.90;66.30
65582;DHT22;52231;40.090;18.348;2023-02-28T15:40:35;16.80;66.90
65582;DHT22;52231;40.090;18.348;2023-02-28T15:43:12;16.70;67.40
65582;DHT22;52231;40.090;18.348;2023-02-28T15:48:28;16.40;67.90
65582;DHT22;52231;40.090;18.348;2023-02-28T15:51:05;16.30;68.20
65582;DHT22;52231;40.090;18.348;2023-02-28T15:56:25;16.00;68.90
65582;DHT22;52231;40.090;18.348;2023-02-28T15:59:03;16.00;69.40
65582;DHT22;52231;40.090;18.348;2023-02-28T16:01:34;15.90;69.80
65582;DHT22;52231;40.090;18.348;2023-02-28T16:04:10;15.80;70.20
65582;DHT22;52231;40.090;18.348;2023-02-28T16:09:16;15.50;70.50
65582;DHT22;52231;40.090;18.348;2023-02-28T16:11:47;15.40;71.00
65582;DHT22;52231;40.090;18.348;2023-02-28T16:14:24;15.30;71.30
65582;DHT22;52231;40.090;18.348;2023-02-28T16:17:02;15.10;72.00
65582;DHT22;52231;40.090;18.348;2023-02-28T16:19:31;15.00;72.40
65582;DHT22;52231;40.090;18.348;2023-02-28T16:22:02;15.00;72.60
65582;DHT22;52231;40.090;18.348;2023-02-28T16:24:33;14.90;72.80
65582;DHT22;52231;40.090;18.348;2023-02-28T16:27:01;14.80;72.80
65582;DHT22;52231;40.090;18.348;2023-02-28T16:29:34;14.70;73.10
65582;DHT22;52231;40.090;18.348;2023-02-28T16:32:05;14.60;73.30
65582;DHT22;52231;40.090;18.348;2023-02-28T16:34:33;14.60;73.60
65582;DHT22;52231;40.090;18.348;2023-02-28T16:37:01;14.60;73.80
65582;DHT22;52231;40.090;18.348;2023-02-28T16:39:30;14.60;74.20
65582;DHT22;52231;40.090;18.348;2023-02-28T16:41:58;14.60;74.30
65582;DHT22;52231;40.090;18.348;2023-02-28T16:44:31;14.60;74.40
65582;DHT22;52231;40.090;18.348;2023-02-28T16:47:02;14.50;74.40
65582;DHT22;52231;40.090;18.348;2023-02-28T16:49:31;14.50;74.60
65582;DHT22;52231;40.090;18.348;2023-02-28T16:52:00;14.40;74.80
65582;DHT22;52231;40.090;18.348;2023-02-28T16:54:28;14.30;74.90
65582;DHT22;52231;40.090;18.348;2023-02-28T16:56:58;14.30;75.10
65582;DHT22;52231;40.090;18.348;2023-02-28T16:59:27;14.20;75.30
65582;DHT22;52231;40.090;18.348;2023-02-28T17:01:56;14.10;75.60
65582;DHT22;52231;40.090;18.348;2023-02-28T17:04:27;14.10;75.90
65582;DHT22;52231;40.090;18.348;2023-02-28T17:06:56;14.00;76.30
65582;DHT22;52231;40.090;18.348;2023-02-28T17:09:24;13.90;76.70
65582;DHT22;52231;40.090;18.348;2023-02-28T17:12:07;13.90;77.20
65582;DHT22;52231;40.090;18.348;2023-02-28T17:14:36;13.80;78.00
65582;DHT22;52231;40.090;18.348;2023-02-28T17:17:06;13.80;78.50
65582;DHT22;52231;40.090;18.348;2023-02-28T17:19:35;13.80;78.90
65582;DHT22;52231;40.090;18.348;2023-02-28T17:22:08;13.70;79.30
65582;DHT22;52231;40.090;18.348;2023-02-28T17:24:37;13.70;79.80
65582;DHT22;52231;40.090;18.348;2023-02-28T17:27:11;13.60;80.40
65582;DHT22;52231;40.090;18.348;2023-02-28T17:29:45;13.50;80.50
65582;DHT22;52231;40.090;18.348;2023-02-28T17:32:15;13.50;80.80
65582;DHT22;52231;40.090;18.348;2023-02-28T17:34:45;13.40;81.10
65582;DHT22;52231;40.090;18.348;2023-02-28T17:37:13;13.40;81.80
65582;DHT22;52231;40.090;18.348;2023-02-28T17:39:42;13.40;82.00
65582;DHT22;52231;40.090;18.348;2023-02-28T17:42:13;13.30;82.50
65582;DHT22;52231;40.090;18.348;2023-02-28T17:44:42;13.30;82.80
65582;DHT22;52231;40.090;18.348;2023-02-28T17:47:12;13.30;83.00
65582;DHT22;52231;40.090;18.348;2023-02-28T17:49:43;13.20;83.40
65582;DHT22;52231;40.090;18.348;2023-02-28T17:52:12;13.10;83.40
65582;DHT22;52231;40.090;18.348;2023-02-28T17:54:40;13.10;83.60
65582;DHT22;52231;40.090;18.348;2023-02-28T17:57:14;13.10;84.00
65582;DHT22;52231;40.090;18.348;2023-02-28T17:59:45;13.00;84.10
65582;DHT22;52231;40.090;18.348;2023-02-28T18:02:14;13.00;84.30
65582;DHT22;52231;40.090;18.348;2023-02-28T18:04:43;12.90;84.40
65582;DHT22;52231;40.090;18.348;2023-02-28T18:07:12;12.80;84.50
65582;DHT22;52231;40.090;18.348;2023-02-28T18:09:41;12.80;84.80
65582;DHT22;52231;40.090;18.348;2023-02-28T18:12:09;12.70;84.80
65582;DHT22;52231;40.090;18.348;2023-02-28T18:14:38;12.70;85.10
65582;DHT22;52231;40.090;18.348;2023-02-28T18:17:06;12.60;85.30
65582;DHT22;52231;40.090;18.348;2023-02-28T18:19:36;12.60;85.30
65582;DHT22;52231;40.090;18.348;2023-02-28T18:22:06;12.50;85.50
65582;DHT22;52231;40.090;18.348;2023-02-28T18:24:39;12.50;85.50
65582;DHT22;52231;40.090;18.348;2023-02-28T18:27:08;12.40;85.70
65582;DHT22;52231;40.090;18.348;2023-02-28T18:29:37;12.40;85.70
65582;DHT22;52231;40.090;18.348;2023-02-28T18:32:08;12.40;85.80
65582;DHT22;52231;40.090;18.348;2023-02-28T18:34:37;12.40;85.80
65582;DHT22;52231;40.090;18.348;2023-02-28T18:37:05;12.40;85.80
65582;DHT22;52231;40.090;18.348;2023-02-28T18:39:35;12.40;85.80
65582;DHT22;52231;40.090;18.348;2023-02-28T18:42:04;12.30;85.60